AUR59H EGHI-EGJB
Flight info
| Callsign | AUR59H |
|---|---|
| Flight time | 0h 28m |
| Altitude | 12000 |
| Route | THRED Q41 ORTAC |
| Aircraft | A320/M-SDE3FGHIRWY/LB1 |
Departure
| Time | 2026-04-22 18:38 |
|---|---|
| Airport | Southampton Airport (EGHI) |
Arrival
| Time | 2026-04-22 19:06 |
|---|---|
| Airport | Guernsey Airport (EGJB) |
| Time | Latitude | Longitude | Altitude | Speed | Heading |
|---|---|---|---|---|---|
| 2026-04-22 18:08 | 50.94959 | -1.36057 | 39 ft | 0 kts | 19° |
| 2026-04-22 18:10 | 50.94958 | -1.36057 | 39 ft | 0 kts | 19° |
| 2026-04-22 18:31 | 50.94935 | -1.36070 | 37 ft | 4 kts | 19° |
| 2026-04-22 18:32 | 50.94916 | -1.36081 | 38 ft | 4 kts | 39° |
| 2026-04-22 18:32 | 50.94908 | -1.36109 | 38 ft | 4 kts | 108° |
| 2026-04-22 18:32 | 50.94915 | -1.36141 | 39 ft | 0 kts | 109° |
| 2026-04-22 18:35 | 50.94914 | -1.36140 | 39 ft | 1 kts | 109° |
| 2026-04-22 18:35 | 50.94894 | -1.36055 | 38 ft | 12 kts | 118° |
| 2026-04-22 18:35 | 50.94811 | -1.36057 | 39 ft | 14 kts | 199° |
| 2026-04-22 18:35 | 50.94712 | -1.36112 | 39 ft | 16 kts | 199° |
| 2026-04-22 18:36 | 50.94603 | -1.36112 | 39 ft | 17 kts | 144° |
| 2026-04-22 18:36 | 50.94543 | -1.35958 | 38 ft | 11 kts | 157° |
| 2026-04-22 18:36 | 50.94465 | -1.35992 | 38 ft | 13 kts | 199° |
| 2026-04-22 18:36 | 50.94373 | -1.36044 | 37 ft | 15 kts | 199° |
| 2026-04-22 18:37 | 50.94298 | -1.36060 | 37 ft | 5 kts | 253° |
| 2026-04-22 18:37 | 50.94320 | -1.36069 | 35 ft | 7 kts | 353° |
| 2026-04-22 18:37 | 50.94419 | -1.36018 | 37 ft | 49 kts | 20° |
| 2026-04-22 18:37 | 50.95271 | -1.35545 | 48 ft | 139 kts | 19° |
| 2026-04-22 18:38 | 50.96145 | -1.35049 | 854 ft | 120 kts | 26° |
| 2026-04-22 18:38 | 50.96945 | -1.34607 | 1381 ft | 126 kts | 27° |
| 2026-04-22 18:38 | 50.97847 | -1.34156 | 1524 ft | 150 kts | 14° |
| 2026-04-22 18:39 | 50.99475 | -1.36011 | 1806 ft | 219 kts | 289° |
| 2026-04-22 18:39 | 50.99141 | -1.39256 | 2174 ft | 245 kts | 229° |
| 2026-04-22 18:39 | 50.97761 | -1.40854 | 2543 ft | 254 kts | 192° |
| 2026-04-22 18:39 | 50.96030 | -1.41446 | 3336 ft | 256 kts | 184° |
| 2026-04-22 18:40 | 50.94278 | -1.41904 | 4365 ft | 255 kts | 184° |
| 2026-04-22 18:40 | 50.92515 | -1.42361 | 5293 ft | 258 kts | 185° |
| 2026-04-22 18:40 | 50.90731 | -1.42820 | 6193 ft | 261 kts | 185° |
| 2026-04-22 18:40 | 50.88930 | -1.43376 | 7044 ft | 267 kts | 191° |
| 2026-04-22 18:41 | 50.87145 | -1.44283 | 7867 ft | 272 kts | 196° |
| 2026-04-22 18:41 | 50.85362 | -1.45365 | 8690 ft | 276 kts | 198° |
| 2026-04-22 18:41 | 50.83561 | -1.46507 | 9517 ft | 280 kts | 198° |
| 2026-04-22 18:41 | 50.81742 | -1.47658 | 10316 ft | 283 kts | 198° |
| 2026-04-22 18:42 | 50.79860 | -1.48823 | 10728 ft | 301 kts | 198° |
| 2026-04-22 18:42 | 50.77833 | -1.50044 | 10958 ft | 322 kts | 198° |
| 2026-04-22 18:42 | 50.75704 | -1.51306 | 11457 ft | 331 kts | 198° |
| 2026-04-22 18:42 | 50.73534 | -1.52586 | 12049 ft | 336 kts | 198° |
| 2026-04-22 18:43 | 50.71336 | -1.53877 | 12232 ft | 337 kts | 197° |
| 2026-04-22 18:43 | 50.69116 | -1.55175 | 12277 ft | 343 kts | 198° |
| 2026-04-22 18:43 | 50.66874 | -1.56487 | 12277 ft | 344 kts | 198° |
| 2026-04-22 18:43 | 50.64627 | -1.57800 | 12276 ft | 345 kts | 197° |
| 2026-04-22 18:44 | 50.62373 | -1.59117 | 12280 ft | 345 kts | 197° |
| 2026-04-22 18:44 | 50.60130 | -1.60426 | 12278 ft | 344 kts | 196° |
| 2026-04-22 18:44 | 50.57884 | -1.61734 | 12274 ft | 344 kts | 198° |
| 2026-04-22 18:44 | 50.55632 | -1.63044 | 12273 ft | 345 kts | 198° |
| 2026-04-22 18:45 | 50.53381 | -1.64354 | 12280 ft | 345 kts | 196° |
| 2026-04-22 18:45 | 50.51136 | -1.65655 | 12279 ft | 344 kts | 196° |
| 2026-04-22 18:45 | 50.48894 | -1.66980 | 12264 ft | 345 kts | 199° |
| 2026-04-22 18:45 | 50.46677 | -1.68432 | 12263 ft | 346 kts | 201° |
| 2026-04-22 18:46 | 50.44474 | -1.69964 | 12267 ft | 346 kts | 201° |
| 2026-04-22 18:46 | 50.42279 | -1.71524 | 12272 ft | 346 kts | 201° |
| 2026-04-22 18:46 | 50.40085 | -1.73084 | 12267 ft | 346 kts | 201° |
| 2026-04-22 18:46 | 50.37884 | -1.74628 | 12268 ft | 347 kts | 202° |
| 2026-04-22 18:47 | 50.35708 | -1.76139 | 12271 ft | 347 kts | 202° |
| 2026-04-22 18:47 | 50.33501 | -1.77663 | 12275 ft | 346 kts | 200° |
| 2026-04-22 18:47 | 50.31293 | -1.79176 | 12268 ft | 346 kts | 199° |
| 2026-04-22 18:47 | 50.29087 | -1.80684 | 12268 ft | 346 kts | 200° |
| 2026-04-22 18:48 | 50.26877 | -1.82193 | 12273 ft | 346 kts | 202° |
| 2026-04-22 18:48 | 50.24666 | -1.83704 | 12275 ft | 346 kts | 200° |
| 2026-04-22 18:48 | 50.22461 | -1.85210 | 12278 ft | 346 kts | 201° |
| 2026-04-22 18:48 | 50.20259 | -1.86713 | 12272 ft | 346 kts | 202° |
| 2026-04-22 18:49 | 50.18053 | -1.88217 | 12273 ft | 345 kts | 201° |
| 2026-04-22 18:49 | 50.15852 | -1.89712 | 12266 ft | 345 kts | 201° |
| 2026-04-22 18:49 | 50.13646 | -1.91207 | 12264 ft | 346 kts | 202° |
| 2026-04-22 18:49 | 50.11438 | -1.92705 | 12257 ft | 346 kts | 202° |
| 2026-04-22 18:50 | 50.09231 | -1.94202 | 12253 ft | 346 kts | 201° |
| 2026-04-22 18:50 | 50.07018 | -1.95698 | 12255 ft | 346 kts | 201° |
| 2026-04-22 18:50 | 50.04808 | -1.97187 | 12258 ft | 346 kts | 202° |
| 2026-04-22 18:50 | 50.02596 | -1.98681 | 12256 ft | 347 kts | 202° |
| 2026-04-22 18:51 | 50.00493 | -2.00534 | 12248 ft | 348 kts | 214° |
| 2026-04-22 18:51 | 49.98687 | -2.03048 | 12248 ft | 351 kts | 226° |
| 2026-04-22 18:51 | 49.97169 | -2.06027 | 12249 ft | 352 kts | 231° |
| 2026-04-22 18:51 | 49.95675 | -2.09037 | 12249 ft | 352 kts | 231° |
| 2026-04-22 18:52 | 49.94172 | -2.12046 | 12249 ft | 352 kts | 231° |
| 2026-04-22 18:52 | 49.93176 | -2.14027 | 12247 ft | 352 kts | 231° |
| 2026-04-22 18:52 | 49.91179 | -2.17988 | 12241 ft | 352 kts | 230° |
| 2026-04-22 18:52 | 49.89668 | -2.20979 | 12241 ft | 352 kts | 231° |
| 2026-04-22 18:53 | 49.88161 | -2.23969 | 12240 ft | 352 kts | 231° |
| 2026-04-22 18:53 | 49.86655 | -2.26962 | 12243 ft | 352 kts | 231° |
| 2026-04-22 18:53 | 49.85154 | -2.29946 | 12220 ft | 348 kts | 231° |
| 2026-04-22 18:53 | 49.83666 | -2.32901 | 12219 ft | 347 kts | 231° |
| 2026-04-22 18:54 | 49.82681 | -2.34852 | 12222 ft | 347 kts | 231° |
| 2026-04-22 18:54 | 49.81194 | -2.37791 | 12220 ft | 346 kts | 231° |
| 2026-04-22 18:54 | 49.79713 | -2.40720 | 12122 ft | 342 kts | 231° |
| 2026-04-22 18:54 | 49.78269 | -2.43573 | 11863 ft | 332 kts | 231° |
| 2026-04-22 18:55 | 49.76856 | -2.46360 | 11535 ft | 326 kts | 231° |
| 2026-04-22 18:55 | 49.75458 | -2.49110 | 11141 ft | 323 kts | 230° |
| 2026-04-22 18:55 | 49.74070 | -2.51836 | 10734 ft | 321 kts | 230° |
| 2026-04-22 18:55 | 49.72692 | -2.54538 | 10344 ft | 319 kts | 231° |
| 2026-04-22 18:56 | 49.71343 | -2.57185 | 10218 ft | 308 kts | 231° |
| 2026-04-22 18:56 | 49.69991 | -2.59682 | 10050 ft | 299 kts | 224° |
| 2026-04-22 18:56 | 49.68495 | -2.61888 | 9685 ft | 297 kts | 223° |
| 2026-04-22 18:56 | 49.66994 | -2.64081 | 9315 ft | 296 kts | 222° |
| 2026-04-22 18:57 | 49.65502 | -2.66255 | 8957 ft | 294 kts | 221° |
| 2026-04-22 18:57 | 49.64018 | -2.68422 | 8593 ft | 293 kts | 222° |
| 2026-04-22 18:57 | 49.62538 | -2.70584 | 8256 ft | 292 kts | 220° |
| 2026-04-22 18:57 | 49.61075 | -2.72722 | 7949 ft | 289 kts | 221° |
| 2026-04-22 18:58 | 49.59617 | -2.74849 | 7610 ft | 287 kts | 221° |
| 2026-04-22 18:58 | 49.58184 | -2.76938 | 7228 ft | 287 kts | 220° |
| 2026-04-22 18:58 | 49.56749 | -2.79032 | 6939 ft | 278 kts | 221° |
| 2026-04-22 18:58 | 49.55381 | -2.81035 | 6666 ft | 265 kts | 219° |
| 2026-04-22 18:59 | 49.54074 | -2.82945 | 6386 ft | 252 kts | 217° |
| 2026-04-22 18:59 | 49.52833 | -2.84753 | 6106 ft | 240 kts | 220° |
| 2026-04-22 18:59 | 49.51645 | -2.86477 | 5815 ft | 228 kts | 217° |
| 2026-04-22 18:59 | 49.50524 | -2.88107 | 5544 ft | 216 kts | 217° |
| 2026-04-22 19:00 | 49.49763 | -2.89095 | 5363 ft | 210 kts | 206° |
| 2026-04-22 19:00 | 49.48037 | -2.89933 | 5101 ft | 191 kts | 182° |
| 2026-04-22 19:00 | 49.46726 | -2.90179 | 4794 ft | 188 kts | 178° |
| 2026-04-22 19:00 | 49.45455 | -2.89964 | 4475 ft | 181 kts | 160° |
| 2026-04-22 19:01 | 49.44328 | -2.89131 | 4051 ft | 182 kts | 142° |
| 2026-04-22 19:01 | 49.43448 | -2.87754 | 3705 ft | 180 kts | 124° |
| 2026-04-22 19:01 | 49.42930 | -2.86048 | 3475 ft | 174 kts | 107° |
| 2026-04-22 19:01 | 49.42799 | -2.84241 | 3257 ft | 169 kts | 92° |
| 2026-04-22 19:02 | 49.42854 | -2.82464 | 3036 ft | 163 kts | 92° |
| 2026-04-22 19:02 | 49.42905 | -2.80771 | 2821 ft | 154 kts | 92° |
| 2026-04-22 19:02 | 49.42952 | -2.79205 | 2627 ft | 145 kts | 92° |
| 2026-04-22 19:02 | 49.42996 | -2.77680 | 2438 ft | 141 kts | 91° |
| 2026-04-22 19:03 | 49.43040 | -2.76183 | 2250 ft | 139 kts | 91° |
| 2026-04-22 19:03 | 49.43083 | -2.74715 | 2083 ft | 133 kts | 92° |
| 2026-04-22 19:03 | 49.43124 | -2.73302 | 1895 ft | 131 kts | 92° |
| 2026-04-22 19:03 | 49.43164 | -2.71907 | 1711 ft | 130 kts | 91° |
| 2026-04-22 19:04 | 49.43203 | -2.70518 | 1516 ft | 130 kts | 90° |
| 2026-04-22 19:04 | 49.43243 | -2.69127 | 1350 ft | 131 kts | 90° |
| 2026-04-22 19:04 | 49.43283 | -2.67737 | 1161 ft | 131 kts | 88° |
| 2026-04-22 19:04 | 49.43323 | -2.66322 | 991 ft | 135 kts | 86° |
| 2026-04-22 19:05 | 49.43363 | -2.64916 | 814 ft | 130 kts | 86° |
| 2026-04-22 19:05 | 49.43402 | -2.63511 | 623 ft | 131 kts | 84° |
| 2026-04-22 19:05 | 49.43440 | -2.62126 | 429 ft | 128 kts | 83° |
| 2026-04-22 19:05 | 49.43483 | -2.60772 | 314 ft | 118 kts | 84° |
| 2026-04-22 19:06 | 49.43508 | -2.59819 | 325 ft | 49 kts | 88° |
| 2026-04-22 19:06 | 49.43517 | -2.59517 | 332 ft | 23 kts | 86° |
| 2026-04-22 19:06 | 49.43524 | -2.59282 | 335 ft | 22 kts | 88° |
| 2026-04-22 19:07 | 49.43376 | -2.59238 | 334 ft | 11 kts | 240° |
| 2026-04-22 19:07 | 49.43369 | -2.59363 | 334 ft | 13 kts | 268° |
| 2026-04-22 19:07 | 49.43365 | -2.59521 | 332 ft | 17 kts | 267° |
| 2026-04-22 19:07 | 49.43340 | -2.59566 | 329 ft | 11 kts | 177° |
| 2026-04-22 19:08 | 49.43284 | -2.59564 | 327 ft | 2 kts | 178° |
| 2026-04-22 19:08 | 49.43273 | -2.59563 | 326 ft | 0 kts | 177° |